Time,TemperatureF,DewpointF,PressureIn,WindDirection,WindDirectionDegrees,WindSpeedMPH,WindSpeedGustMPH,Humidity,HourlyPrecipIn,Conditions,Clouds,dailyrainin,SoftwareType,DateUTC
2013-02-19 00:00:00,25.6,5.1,30.17,West,267,3.0,16.0,41,0.00,,,0.00,Wunderground v.1.15,2013-02-19 05:00:00,
2013-02-19 00:10:00,25.5,5.6,30.17,WSW,256,3.0,16.0,42,0.00,,,0.00,Wunderground v.1.15,2013-02-19 05:10:00,
2013-02-19 00:20:00,25.7,5.7,30.17,WNW,283,3.0,16.0,42,0.00,,,0.00,Wunderground v.1.15,2013-02-19 05:20:00,
2013-02-19 00:30:00,25.8,5.8,30.17,West,260,3.0,16.0,42,0.00,,,0.00,Wunderground v.1.15,2013-02-19 05:30:00,
2013-02-19 00:40:00,25.8,5.8,30.17,West,277,3.0,16.0,42,0.00,,,0.00,Wunderground v.1.15,2013-02-19 05:40:00,
2013-02-19 00:50:00,25.8,5.3,30.17,NNW,348,2.0,16.0,41,0.00,,,0.00,Wunderground v.1.15,2013-02-19 05:50:00,
2013-02-19 01:00:00,25.9,5.9,30.17,West,259,3.0,3.0,42,0.00,,,0.00,Wunderground v.1.15,2013-02-19 06:00:00,
2013-02-19 01:10:00,25.7,6.3,30.17,West,259,3.0,3.0,43,0.00,,,0.00,Wunderground v.1.15,2013-02-19 06:10:00,
2013-02-19 01:20:00,25.8,6.3,30.18,WNW,285,3.0,3.0,43,0.00,,,0.00,Wunderground v.1.15,2013-02-19 06:20:00,
2013-02-19 01:30:00,25.9,6.4,30.18,WNW,285,3.0,16.0,43,0.00,,,0.00,Wunderground v.1.15,2013-02-19 06:30:00,
2013-02-19 01:40:00,25.9,6.9,30.18,West,267,3.0,16.0,44,0.00,,,0.00,Wunderground v.1.15,2013-02-19 06:40:00,
2013-02-19 02:00:00,26.4,7.4,30.18,WSW,252,3.0,16.0,44,0.00,,,0.00,Wunderground v.1.15,2013-02-19 07:00:00,
2013-02-19 02:10:00,26.6,8.1,30.18,West,271,3.0,16.0,45,0.00,,,0.00,Wunderground v.1.15,2013-02-19 07:10:00,
2013-02-19 02:20:00,26.7,7.7,30.18,West,264,3.0,3.0,44,0.00,,,0.00,Wunderground v.1.15,2013-02-19 07:20:00,
2013-02-19 02:30:00,26.7,8.2,30.18,West,264,2.0,16.0,45,0.00,,,0.00,Wunderground v.1.15,2013-02-19 07:30:00,
2013-02-19 02:40:00,26.6,8.1,30.18,WSW,243,2.0,2.0,45,0.00,,,0.00,Wunderground v.1.15,2013-02-19 07:40:00,
2013-02-19 02:50:00,26.4,8.4,30.18,West,278,1.0,16.0,46,0.00,,,0.00,Wunderground v.1.15,2013-02-19 07:50:00,
2013-02-19 03:00:00,26.2,8.7,30.18,West,280,1.0,16.0,47,0.00,,,0.00,Wunderground v.1.15,2013-02-19 08:00:00,
2013-02-19 03:10:00,26.2,9.2,30.18,West,280,2.0,2.0,48,0.00,,,0.00,Wunderground v.1.15,2013-02-19 08:10:00,
2013-02-19 03:20:00,26.4,9.8,30.18,West,274,2.0,16.0,49,0.00,,,0.00,Wunderground v.1.15,2013-02-19 08:20:00,
2013-02-19 03:30:00,26.6,10.4,30.18,WSW,256,2.0,16.0,50,0.00,,,0.00,Wunderground v.1.15,2013-02-19 08:30:00,
2013-02-19 03:40:00,26.8,10.6,30.18,West,273,2.0,16.0,50,0.00,,,0.00,Wunderground v.1.15,2013-02-19 08:40:00,
2013-02-19 03:50:00,26.9,11.2,30.17,West,264,2.0,16.0,51,0.00,,,0.00,Wunderground v.1.15,2013-02-19 08:50:00,
2013-02-19 04:00:00,26.8,11.5,30.17,West,259,1.0,16.0,52,0.00,,,0.00,Wunderground v.1.15,2013-02-19 09:00:00,
2013-02-19 04:10:00,26.7,11.8,30.18,WSW,248,1.0,16.0,53,0.00,,,0.00,Wunderground v.1.15,2013-02-19 09:10:00,
2013-02-19 04:20:00,26.8,12.4,30.18,NW,325,1.0,16.0,54,0.00,,,0.00,Wunderground v.1.15,2013-02-19 09:20:00,
2013-02-19 04:30:00,27.0,13.0,30.18,West,281,1.0,16.0,55,0.00,,,0.00,Wunderground v.1.15,2013-02-19 09:30:00,
2013-02-19 04:40:00,27.1,13.5,30.18,SW,219,1.0,16.0,56,0.00,,,0.00,Wunderground v.1.15,2013-02-19 09:40:00,
2013-02-19 04:50:00,27.3,14.1,30.18,WSW,242,2.0,16.0,57,0.00,,,0.00,Wunderground v.1.15,2013-02-19 09:50:00,
2013-02-19 05:00:00,27.4,14.1,30.18,WNW,286,1.0,16.0,57,0.00,,,0.00,Wunderground v.1.15,2013-02-19 10:00:00,
2013-02-19 05:10:00,27.3,14.5,30.18,West,263,1.0,16.0,58,0.00,,,0.00,Wunderground v.1.15,2013-02-19 10:10:00,
2013-02-19 05:20:00,27.2,14.4,30.18,WNW,284,1.0,1.0,58,0.00,,,0.00,Wunderground v.1.15,2013-02-19 10:20:00,
2013-02-19 05:30:00,26.9,14.5,30.17,WNW,285,0.0,16.0,59,0.00,,,0.00,Wunderground v.1.15,2013-02-19 10:30:00,
2013-02-19 05:40:00,26.2,14.2,30.17,SSW,208,0.0,16.0,60,0.00,,,0.00,Wunderground v.1.15,2013-02-19 10:40:00,
2013-02-19 05:50:00,25.9,14.3,30.17,West,276,0.0,16.0,61,0.00,,,0.00,Wunderground v.1.15,2013-02-19 10:50:00,
2013-02-19 06:00:00,26.5,14.9,30.17,West,263,1.0,16.0,61,0.00,,,0.00,Wunderground v.1.15,2013-02-19 11:00:00,
2013-02-19 06:10:00,26.3,15.8,30.17,WSW,257,1.0,16.0,64,0.00,,,0.00,Wunderground v.1.15,2013-02-19 11:10:00,
2013-02-19 06:20:00,26.6,17.1,30.17,West,262,1.0,16.0,67,0.00,,,0.00,Wunderground v.1.15,2013-02-19 11:20:00,
2013-02-19 06:30:00,27.4,18.6,30.18,WSW,255,2.0,2.0,69,0.00,,,0.00,Wunderground v.1.15,2013-02-19 11:30:00,
2013-02-19 06:40:00,28.1,19.2,30.18,West,272,1.0,16.0,69,0.00,,,0.00,Wunderground v.1.15,2013-02-19 11:40:00,
2013-02-19 06:50:00,28.7,19.8,30.17,NNW,339,2.0,2.0,69,0.00,,,0.00,Wunderground v.1.15,2013-02-19 11:50:00,
2013-02-19 07:00:00,29.1,19.5,30.17,West,278,1.0,16.0,67,0.00,,,0.00,Wunderground v.1.15,2013-02-19 12:00:00,
2013-02-19 07:10:00,29.9,19.9,30.16,WNW,284,1.0,16.0,66,0.00,,,0.00,Wunderground v.1.15,2013-02-19 12:10:00,
2013-02-19 07:20:00,30.7,20.0,30.17,West,268,1.0,16.0,64,0.00,,,0.00,Wunderground v.1.15,2013-02-19 12:20:00,
2013-02-19 07:30:00,31.4,20.2,30.17,WSW,249,2.0,2.0,63,0.00,,,0.00,Wunderground v.1.15,2013-02-19 12:30:00,
2013-02-19 07:40:00,32.1,21.3,30.17,WSW,256,1.0,16.0,64,0.00,,,0.00,Wunderground v.1.15,2013-02-19 12:40:00,
2013-02-19 07:50:00,32.7,22.2,30.16,WNW,284,0.0,16.0,65,0.00,,,0.00,Wunderground v.1.15,2013-02-19 12:50:00,
2013-02-19 08:00:00,33.7,24.3,30.16,West,266,1.0,16.0,68,0.00,,,0.00,Wunderground v.1.15,2013-02-19 13:00:00,
2013-02-19 08:10:00,34.5,25.7,30.16,WSW,240,1.0,1.0,70,0.00,,,0.00,Wunderground v.1.15,2013-02-19 13:10:00,
2013-02-19 08:20:00,35.6,27.1,30.15,SW,218,0.0,16.0,71,0.00,,,0.00,Wunderground v.1.15,2013-02-19 13:20:00,
2013-02-19 08:30:00,37.0,27.8,30.15,WSW,255,0.0,16.0,69,0.00,,,0.00,Wunderground v.1.15,2013-02-19 13:30:00,
2013-02-19 08:40:00,37.3,28.4,30.15,South,174,2.0,2.0,70,0.00,,,0.00,Wunderground v.1.15,2013-02-19 13:40:00,
2013-02-19 08:50:00,36.9,28.0,30.15,SSW,210,2.0,16.0,70,0.00,,,0.00,Wunderground v.1.15,2013-02-19 13:50:00,
2013-02-19 09:00:00,37.7,28.8,30.15,SSW,211,1.0,1.0,70,0.00,,,0.00,Wunderground v.1.15,2013-02-19 14:00:00,
2013-02-19 09:10:00,38.2,28.9,30.15,SSW,194,1.0,1.0,69,0.00,,,0.00,Wunderground v.1.15,2013-02-19 14:10:00,
2013-02-19 09:20:00,38.9,28.9,30.15,SSW,192,1.0,16.0,67,0.00,,,0.00,Wunderground v.1.15,2013-02-19 14:20:00,
2013-02-19 09:30:00,39.3,30.0,30.15,SSW,207,1.0,16.0,69,0.00,,,0.00,Wunderground v.1.15,2013-02-19 14:30:00,
2013-02-19 09:40:00,39.3,30.3,30.15,South,181,2.0,16.0,70,0.00,,,0.00,Wunderground v.1.15,2013-02-19 14:40:00,
2013-02-19 09:50:00,39.4,30.8,30.15,South,187,2.0,2.0,71,0.00,,,0.00,Wunderground v.1.15,2013-02-19 14:50:00,
2013-02-19 10:00:00,40.0,31.0,30.15,South,172,1.0,16.0,70,0.00,,,0.00,Wunderground v.1.15,2013-02-19 15:00:00,
2013-02-19 10:10:00,40.5,30.8,30.15,SW,218,1.0,16.0,68,0.00,,,0.00,Wunderground v.1.15,2013-02-19 15:10:00,
2013-02-19 10:20:00,40.9,31.1,30.15,WSW,250,2.0,16.0,68,0.00,,,0.00,Wunderground v.1.15,2013-02-19 15:20:00,
2013-02-19 10:30:00,40.7,31.3,30.14,SE,135,2.0,2.0,69,0.00,,,0.00,Wunderground v.1.15,2013-02-19 15:30:00,
2013-02-19 10:40:00,40.6,31.6,30.14,SSE,148,2.0,16.0,70,0.00,,,0.00,Wunderground v.1.15,2013-02-19 15:40:00,
2013-02-19 10:50:00,40.5,31.8,30.14,SE,129,3.0,3.0,71,0.00,,,0.00,Wunderground v.1.15,2013-02-19 15:50:00,
2013-02-19 11:00:00,41.0,32.3,30.14,SE,131,2.0,16.0,71,0.00,,,0.00,Wunderground v.1.15,2013-02-19 16:00:00,
2013-02-19 11:10:00,40.7,32.4,30.13,SSE,158,2.0,16.0,72,0.00,,,0.00,Wunderground v.1.15,2013-02-19 16:10:00,
2013-02-19 11:20:00,40.7,32.7,30.13,SE,135,2.0,16.0,73,0.00,,,0.00,Wunderground v.1.15,2013-02-19 16:20:00,
2013-02-19 11:30:00,40.4,33.1,30.13,SSE,152,3.0,3.0,75,0.00,,,0.00,Wunderground v.1.15,2013-02-19 16:30:00,
2013-02-19 11:40:00,40.6,33.6,30.12,WSW,243,2.0,16.0,76,0.00,,,0.00,Wunderground v.1.15,2013-02-19 16:40:00,
2013-02-19 11:50:00,40.8,33.8,30.11,SW,232,2.0,16.0,76,0.00,,,0.00,Wunderground v.1.15,2013-02-19 16:50:00,
2013-02-19 12:00:00,40.5,33.5,30.11,SSW,211,3.0,16.0,76,0.00,,,0.00,Wunderground v.1.15,2013-02-19 17:00:00,
2013-02-19 12:10:00,40.6,33.6,30.10,ESE,122,3.0,16.0,76,0.00,,,0.00,Wunderground v.1.15,2013-02-19 17:10:00,
2013-02-19 12:20:00,40.6,34.0,30.09,SSE,166,3.0,16.0,77,0.00,,,0.00,Wunderground v.1.15,2013-02-19 17:20:00,
2013-02-19 12:30:00,40.9,33.9,30.08,South,173,3.0,3.0,76,0.00,,,0.00,Wunderground v.1.15,2013-02-19 17:30:00,
2013-02-19 12:40:00,41.2,34.2,30.07,SSE,167,2.0,16.0,76,0.00,,,0.00,Wunderground v.1.15,2013-02-19 17:40:00,
2013-02-19 12:50:00,40.7,33.7,30.07,SSW,207,3.0,16.0,76,0.00,,,0.00,Wunderground v.1.15,2013-02-19 17:50:00,
2013-02-19 13:00:00,40.4,33.8,30.07,SW,215,3.0,16.0,77,0.00,,,0.00,Wunderground v.1.15,2013-02-19 18:00:00,
2013-02-19 13:10:00,40.5,34.2,30.06,South,184,3.0,16.0,78,0.00,,,0.00,Wunderground v.1.15,2013-02-19 18:10:00,
2013-02-19 13:20:00,40.1,34.7,30.06,ESE,115,4.0,16.0,81,0.00,,,0.00,Wunderground v.1.15,2013-02-19 18:20:00,
2013-02-19 13:30:00,39.6,34.9,30.05,SSE,155,5.0,16.0,83,0.00,,,0.00,Wunderground v.1.15,2013-02-19 18:30:00,
2013-02-19 13:40:00,39.3,34.9,30.04,ESE,116,6.0,16.0,84,0.00,,,0.00,Wunderground v.1.15,2013-02-19 18:40:00,
2013-02-19 13:50:00,39.3,34.6,30.03,SE,145,7.0,7.0,83,0.00,,,0.00,Wunderground v.1.15,2013-02-19 18:50:00,
2013-02-19 14:00:00,39.3,34.6,30.03,SE,146,6.0,6.0,83,0.00,,,0.00,Wunderground v.1.15,2013-02-19 19:00:00,
2013-02-19 14:10:00,39.2,34.5,30.03,South,169,7.0,7.0,83,0.00,,,0.00,Wunderground v.1.15,2013-02-19 19:10:00,
2013-02-19 14:20:00,39.1,34.7,30.02,SE,146,7.0,16.0,84,0.00,,,0.00,Wunderground v.1.15,2013-02-19 19:20:00,
2013-02-19 14:30:00,39.2,35.1,30.02,SSE,158,8.0,16.0,85,0.00,,,0.00,Wunderground v.1.15,2013-02-19 19:30:00,
2013-02-19 14:40:00,39.3,35.5,30.02,SSW,203,7.0,16.0,86,0.00,,,0.00,Wunderground v.1.15,2013-02-19 19:40:00,
2013-02-19 14:50:00,39.4,35.9,30.01,SE,145,7.0,16.0,87,0.00,,,0.00,Wunderground v.1.15,2013-02-19 19:50:00,
2013-02-19 15:00:00,39.4,35.9,30.00,South,188,7.0,7.0,87,0.00,,,0.00,Wunderground v.1.15,2013-02-19 20:00:00,
2013-02-19 15:10:00,39.6,36.3,30.00,SE,124,6.0,6.0,88,0.00,,,0.00,Wunderground v.1.15,2013-02-19 20:10:00,
2013-02-19 15:20:00,39.8,36.5,29.99,SSE,160,6.0,16.0,88,0.00,,,0.00,Wunderground v.1.15,2013-02-19 20:20:00,
2013-02-19 15:30:00,39.7,36.7,29.98,ESE,107,5.0,5.0,89,0.00,,,0.00,Wunderground v.1.15,2013-02-19 20:30:00,
2013-02-19 15:40:00,39.7,36.7,29.98,SSW,197,5.0,5.0,89,0.00,,,0.00,Wunderground v.1.15,2013-02-19 20:40:00,
2013-02-19 15:50:00,39.4,36.7,29.97,SE,145,5.0,5.0,90,0.00,,,0.00,Wunderground v.1.15,2013-02-19 20:50:00,
2013-02-19 16:00:00,39.5,37.1,29.96,SSE,150,6.0,6.0,91,0.00,,,0.00,Wunderground v.1.15,2013-02-19 21:00:00,
2013-02-19 16:10:00,39.4,37.0,29.95,East,99,5.0,5.0,91,0.00,,,0.00,Wunderground v.1.15,2013-02-19 21:10:00,
2013-02-19 16:20:00,39.4,37.0,29.95,SE,139,6.0,16.0,91,0.00,,,0.00,Wunderground v.1.15,2013-02-19 21:20:00,
2013-02-19 16:30:00,39.4,37.0,29.95,SSW,212,5.0,16.0,91,0.00,,,0.00,Wunderground v.1.15,2013-02-19 21:30:00,
2013-02-19 16:40:00,39.6,37.2,29.94,SE,145,6.0,6.0,91,0.00,,,0.00,Wunderground v.1.15,2013-02-19 21:40:00,
2013-02-19 16:50:00,39.6,37.2,29.93,SE,142,5.0,16.0,91,0.00,,,0.00,Wunderground v.1.15,2013-02-19 21:50:00,
2013-02-19 17:00:00,39.4,37.3,29.93,SSE,148,5.0,16.0,92,0.00,,,0.00,Wunderground v.1.15,2013-02-19 22:00:00,
2013-02-19 17:10:00,39.6,37.5,29.92,SSE,162,6.0,6.0,92,0.00,,,0.00,Wunderground v.1.15,2013-02-19 22:10:00,
2013-02-19 17:20:00,39.5,37.4,29.92,SE,132,6.0,16.0,92,0.00,,,0.00,Wunderground v.1.15,2013-02-19 22:20:00,
2013-02-19 17:30:00,39.5,37.4,29.91,SSE,155,6.0,6.0,92,0.00,,,0.00,Wunderground v.1.15,2013-02-19 22:30:00,
2013-02-19 17:40:00,39.6,37.5,29.91,SSE,150,7.0,16.0,92,0.00,,,0.00,Wunderground v.1.15,2013-02-19 22:40:00,
2013-02-19 17:50:00,39.7,37.6,29.90,SSE,150,7.0,16.0,92,0.00,,,0.00,Wunderground v.1.15,2013-02-19 22:50:00,
2013-02-19 18:00:00,39.9,37.8,29.89,SSE,147,7.0,7.0,92,0.00,,,0.00,Wunderground v.1.15,2013-02-19 23:00:00,
2013-02-19 18:10:00,39.6,37.7,29.89,South,174,7.0,16.0,93,0.00,,,0.00,Wunderground v.1.15,2013-02-19 23:10:00,
2013-02-19 18:20:00,39.5,37.6,29.88,ENE,65,6.0,6.0,93,0.00,,,0.00,Wunderground v.1.15,2013-02-19 23:20:00,
2013-02-19 18:30:00,39.3,37.4,29.86,East,83,5.0,16.0,93,0.00,,,0.00,Wunderground v.1.15,2013-02-19 23:30:00,
2013-02-19 18:40:00,39.4,37.8,29.85,SE,145,5.0,5.0,94,0.00,,,0.00,Wunderground v.1.15,2013-02-19 23:40:00,
2013-02-19 18:50:00,39.6,38.0,29.83,ESE,120,6.0,16.0,94,0.00,,,0.00,Wunderground v.1.15,2013-02-19 23:50:00,
2013-02-19 19:00:00,40.1,38.2,29.83,SSE,161,7.0,7.0,93,0.00,,,0.00,Wunderground v.1.15,2013-02-20 00:00:00,
2013-02-19 19:10:00,40.4,38.5,29.82,SE,143,7.0,16.0,93,0.00,,,0.00,Wunderground v.1.15,2013-02-20 00:10:00,
2013-02-19 19:20:00,40.4,38.5,29.81,ESE,105,7.0,7.0,93,0.00,,,0.00,Wunderground v.1.15,2013-02-20 00:20:00,
2013-02-19 19:30:00,40.6,38.7,29.81,ESE,108,7.0,7.0,93,0.00,,,0.00,Wunderground v.1.15,2013-02-20 00:30:00,
2013-02-19 19:40:00,41.0,38.9,29.80,SE,145,8.0,16.0,92,0.00,,,0.00,Wunderground v.1.15,2013-02-20 00:40:00,
2013-02-19 19:50:00,41.3,39.4,29.79,SSE,153,8.0,16.0,93,0.00,,,0.00,Wunderground v.1.15,2013-02-20 00:50:00,
2013-02-19 20:00:00,41.5,39.6,29.78,SE,132,9.0,9.0,93,0.00,,,0.00,Wunderground v.1.15,2013-02-20 01:00:00,
2013-02-19 20:10:00,41.5,39.6,29.77,East,101,9.0,16.0,93,0.00,,,0.01,Wunderground v.1.15,2013-02-20 01:10:00,
2013-02-19 20:20:00,41.5,39.9,29.76,SSE,151,9.0,9.0,94,0.00,,,0.01,Wunderground v.1.15,2013-02-20 01:20:00,
2013-02-19 20:30:00,41.4,39.8,29.75,ESE,113,9.0,16.0,94,0.04,,,0.02,Wunderground v.1.15,2013-02-20 01:30:00,
2013-02-19 20:40:00,41.5,40.2,29.74,SE,127,9.0,9.0,95,0.04,,,0.02,Wunderground v.1.15,2013-02-20 01:40:00,
2013-02-19 20:50:00,41.3,40.0,29.73,SE,146,9.0,9.0,95,0.09,,,0.04,Wunderground v.1.15,2013-02-20 01:50:00,
2013-02-19 21:00:00,41.5,40.2,29.71,ESE,102,9.0,16.0,95,0.06,,,0.05,Wunderground v.1.15,2013-02-20 02:00:00,
2013-02-19 21:10:00,41.5,40.4,29.70,ESE,113,9.0,9.0,96,0.04,,,0.05,Wunderground v.1.15,2013-02-20 02:10:00,
2013-02-19 21:20:00,41.5,40.4,29.70,SE,139,9.0,16.0,96,0.12,,,0.07,Wunderground v.1.15,2013-02-20 02:20:00,
2013-02-19 21:30:00,41.7,40.6,29.69,SE,145,11.0,11.0,96,0.17,,,0.10,Wunderground v.1.15,2013-02-20 02:30:00,
2013-02-19 21:40:00,41.7,40.6,29.68,SE,134,12.0,16.0,96,0.19,,,0.12,Wunderground v.1.15,2013-02-20 02:40:00,
2013-02-19 21:50:00,41.5,40.4,29.67,South,170,11.0,16.0,96,0.05,,,0.13,Wunderground v.1.15,2013-02-20 02:50:00,
2013-02-19 22:00:00,41.8,41.0,29.66,SSE,148,11.0,16.0,97,0.05,,,0.13,Wunderground v.1.15,2013-02-20 03:00:00,
2013-02-19 22:10:00,41.6,40.8,29.69,West,274,9.0,9.0,97,0.00,,,0.14,Wunderground v.1.15,2013-02-20 03:10:00,
2013-02-19 22:20:00,42.4,41.6,29.66,SSW,195,6.0,6.0,97,0.50,,,0.20,Wunderground v.1.15,2013-02-20 03:20:00,
2013-02-19 22:30:00,41.9,41.1,29.67,SW,232,5.0,5.0,97,0.30,,,0.25,Wunderground v.1.15,2013-02-20 03:30:00,
2013-02-19 22:40:00,42.0,41.2,29.66,WSW,244,8.0,16.0,97,0.18,,,0.35,Wunderground v.1.15,2013-02-20 03:40:00,
2013-02-19 22:50:00,42.2,41.4,29.65,SSW,200,8.0,8.0,97,0.20,,,0.38,Wunderground v.1.15,2013-02-20 03:50:00,
2013-02-19 23:00:00,42.7,41.9,29.64,South,191,6.0,16.0,97,0.17,,,0.42,Wunderground v.1.15,2013-02-20 04:00:00,
2013-02-19 23:10:00,41.3,40.2,29.64,NW,325,3.0,16.0,96,0.30,,,0.46,Wunderground v.1.15,2013-02-20 04:10:00,
2013-02-19 23:20:00,41.7,40.9,29.64,WSW,239,4.0,4.0,97,0.28,,,0.50,Wunderground v.1.15,2013-02-20 04:20:00,
2013-02-19 23:30:00,40.5,39.4,29.64,ENE,70,3.0,3.0,96,0.11,,,0.52,Wunderground v.1.15,2013-02-20 04:30:00,
2013-02-19 23:40:00,39.6,38.8,29.62,West,273,1.0,1.0,97,0.17,,,0.56,Wunderground v.1.15,2013-02-20 04:40:00,
2013-02-19 23:50:00,39.7,38.9,29.62,WSW,250,2.0,2.0,97,0.06,,,0.56,Wunderground v.1.15,2013-02-20 04:50:00,